Time;durP1;ratioP1;P1;durP2;ratioP2;P2;SDS_P1;SDS_P2;PMS_P1;PMS_P2;Temp;Humidity;BMP_temperature;BMP_pressure;BME280_temperature;BME280_humidity;BME280_pressure;Samples;Min_cycle;Max_cycle;Signal;HPM_P1;HPM_P2
2023/07/11 00:00:03;;;;;;;89.15;54.55;;;21.80;72.40;;;;;;4973621;28;94897;-43
2023/07/11 00:02:29;;;;;;;89.72;54.42;;;21.80;72.50;;;;;;4973735;28;94404;-43
2023/07/11 00:04:57;;;;;;;88.93;54.33;;;21.80;72.50;;;;;;4978258;28;94706;-45
2023/07/11 00:07:22;;;;;;;88.38;54.58;;;21.70;72.60;;;;;;4979024;28;96348;-42
2023/07/11 00:09:48;;;;;;;90.18;54.28;;;21.70;72.60;;;;;;4982262;28;96016;-46
2023/07/11 00:12:14;;;;;;;87.85;54.10;;;21.70;72.70;;;;;;4978454;28;97996;-43
2023/07/11 00:14:40;;;;;;;90.00;54.58;;;21.60;72.70;;;;;;4980509;28;94654;-44
2023/07/11 00:17:06;;;;;;;90.95;54.63;;;21.60;72.80;;;;;;4978097;28;94973;-44
2023/07/11 00:19:47;;;;;;;88.97;54.25;;;21.60;72.80;;;;;;4976116;28;94917;-42
2023/07/11 00:22:13;;;;;;;87.32;54.20;;;21.50;72.80;;;;;;4967356;28;95187;-43
2023/07/11 00:24:38;;;;;;;87.80;54.20;;;21.50;72.90;;;;;;4971880;28;95334;-44
2023/07/11 00:27:04;;;;;;;89.45;54.22;;;21.50;73.10;;;;;;4982412;28;93971;-43
2023/07/11 00:29:30;;;;;;;89.15;54.40;;;21.50;73.10;;;;;;4979911;28;94942;-44
2023/07/11 00:31:55;;;;;;;89.10;54.10;;;21.40;73.20;;;;;;4983414;28;95831;-43
2023/07/11 00:34:21;;;;;;;87.78;54.25;;;21.40;73.40;;;;;;4972969;28;95703;-43
2023/07/11 00:36:46;;;;;;;86.95;54.05;;;21.40;73.30;;;;;;4972202;28;96632;-43
2023/07/11 00:39:12;;;;;;;87.18;54.33;;;21.40;73.30;;;;;;4981604;28;95038;-41
2023/07/11 00:41:38;;;;;;;89.63;54.17;;;21.30;73.40;;;;;;4975476;28;95064;-40
2023/07/11 00:44:10;;;;;;;89.90;54.45;;;21.30;73.40;;;;;;4982145;28;95267;-40
2023/07/11 00:46:36;;;;;;;87.47;54.20;;;21.30;73.60;;;;;;4979398;28;94922;-40
2023/07/11 00:49:02;;;;;;;88.40;54.65;;;21.30;73.60;;;;;;4961771;28;96191;-41
2023/07/11 00:51:32;;;;;;;88.95;54.33;;;21.20;74.40;;;;;;4977410;28;97372;-39
2023/07/11 00:53:59;;;;;;;90.10;54.58;;;21.20;73.80;;;;;;4976860;28;94631;-40
2023/07/11 00:56:29;;;;;;;88.88;54.50;;;21.20;73.70;;;;;;4977008;28;96668;-40
2023/07/11 00:58:56;;;;;;;89.50;54.25;;;21.20;73.70;;;;;;4974103;28;96284;-40
2023/07/11 01:01:23;;;;;;;89.35;54.50;;;21.20;73.90;;;;;;4973000;28;95515;-40
2023/07/11 01:03:52;;;;;;;90.80;54.25;;;21.10;73.70;;;;;;4970788;28;95064;-39
2023/07/11 01:06:22;;;;;;;88.10;54.17;;;21.10;73.80;;;;;;4969708;28;95087;-41
2023/07/11 01:08:50;;;;;;;89.32;54.10;;;21.10;74.20;;;;;;4974243;28;96558;-40
2023/07/11 01:11:17;;;;;;;89.05;54.53;;;21.00;74.10;;;;;;4968360;28;96303;-40
2023/07/11 01:13:43;;;;;;;87.43;54.28;;;21.00;74.10;;;;;;4976310;28;96540;-40
2023/07/11 01:16:09;;;;;;;87.88;54.33;;;21.00;74.10;;;;;;4981836;28;93889;-41
2023/07/11 01:18:35;;;;;;;90.13;54.20;;;21.00;74.00;;;;;;4955369;28;94923;-43
2023/07/11 01:21:02;;;;;;;87.43;54.33;;;21.00;74.20;;;;;;4975462;28;95263;-43
2023/07/11 01:23:28;;;;;;;86.88;54.00;;;21.00;74.20;;;;;;4972641;28;95627;-44
2023/07/11 01:26:05;;;;;;;88.50;54.22;;;20.90;74.30;;;;;;4979551;28;94621;-45
2023/07/11 01:28:31;;;;;;;88.97;54.33;;;20.90;74.50;;;;;;4974876;28;95497;-43
2023/07/11 01:30:57;;;;;;;90.60;54.45;;;20.90;74.60;;;;;;4977810;28;94769;-44
2023/07/11 01:33:24;;;;;;;87.82;54.20;;;20.90;75.00;;;;;;4973620;28;94838;-42
2023/07/11 01:35:54;;;;;;;87.75;54.33;;;20.90;74.90;;;;;;4977547;28;94871;-43
2023/07/11 01:38:21;;;;;;;88.15;54.35;;;20.80;74.70;;;;;;4973816;28;95157;-44
2023/07/11 01:40:48;;;;;;;87.70;54.40;;;20.80;75.00;;;;;;4977974;28;95266;-42
2023/07/11 01:43:16;;;;;;;88.28;54.22;;;20.80;74.60;;;;;;4958296;28;94592;-45
2023/07/11 01:45:41;;;;;;;87.75;54.03;;;20.80;74.60;;;;;;4974937;28;95199;-43
2023/07/11 01:48:07;;;;;;;89.45;54.17;;;20.80;74.70;;;;;;4971440;28;95764;-39
2023/07/11 01:50:33;;;;;;;87.40;54.38;;;20.80;74.70;;;;;;4974632;28;95263;-39
2023/07/11 01:52:59;;;;;;;88.72;54.15;;;20.70;74.80;;;;;;4975246;28;94907;-39
2023/07/11 01:55:25;;;;;;;86.85;53.88;;;20.70;74.70;;;;;;4975323;28;96813;-40
2023/07/11 01:57:50;;;;;;;87.50;54.17;;;20.70;74.70;;;;;;4977089;28;96387;-40
2023/07/11 02:00:16;;;;;;;88.47;53.97;;;20.60;74.80;;;;;;4975042;28;95371;-39
2023/07/11 02:02:42;;;;;;;87.30;54.05;;;20.60;74.80;;;;;;4981716;28;95126;-39
2023/07/11 02:05:08;;;;;;;88.53;54.33;;;20.60;74.90;;;;;;4969558;28;94270;-39
2023/07/11 02:07:34;;;;;;;88.05;54.20;;;20.60;74.80;;;;;;4966277;28;96903;-38
2023/07/11 02:09:59;;;;;;;86.97;54.42;;;20.60;74.80;;;;;;4971597;28;96179;-39
2023/07/11 02:12:25;;;;;;;88.38;54.28;;;20.50;74.60;;;;;;4953672;28;100465;-38
2023/07/11 02:14:51;;;;;;;86.75;54.03;;;20.50;74.70;;;;;;4969090;28;95539;-39
2023/07/11 02:17:17;;;;;;;89.75;54.22;;;20.50;75.00;;;;;;4978597;28;96198;-39
2023/07/11 02:19:46;;;;;;;86.90;54.13;;;20.50;75.00;;;;;;4975674;28;96739;-39
2023/07/11 02:22:12;;;;;;;88.75;54.25;;;20.50;74.90;;;;;;4970179;28;94933;-38
2023/07/11 02:24:41;;;;;;;87.13;54.17;;;20.50;75.00;;;;;;4975005;28;94362;-39
2023/07/11 02:27:07;;;;;;;86.43;54.13;;;20.40;75.20;;;;;;4976791;28;96504;-39
2023/07/11 02:29:34;;;;;;;88.85;54.40;;;20.40;75.30;;;;;;4974458;28;94435;-39
2023/07/11 02:32:00;;;;;;;88.40;54.38;;;20.40;75.20;;;;;;4974972;28;95129;-38
2023/07/11 02:34:25;;;;;;;87.20;54.20;;;20.40;75.30;;;;;;4975351;28;95078;-39
2023/07/11 02:36:51;;;;;;;87.22;53.90;;;20.30;75.30;;;;;;4971018;28;97087;-39
2023/07/11 02:39:17;;;;;;;87.20;54.03;;;20.30;75.30;;;;;;4976704;28;96166;-39
2023/07/11 02:41:43;;;;;;;87.47;54.20;;;20.30;75.50;;;;;;4977887;28;94807;-38
2023/07/11 02:44:09;;;;;;;88.65;54.17;;;20.30;75.50;;;;;;4968983;28;94904;-38
2023/07/11 02:46:35;;;;;;;86.70;54.03;;;20.30;75.40;;;;;;4965559;28;97078;-40
2023/07/11 02:49:01;;;;;;;86.88;54.15;;;20.30;75.50;;;;;;4967682;28;95193;-39
2023/07/11 02:51:26;;;;;;;86.80;54.15;;;20.30;75.70;;;;;;4975023;28;94675;-39
2023/07/11 02:53:55;;;;;;;86.22;53.83;;;20.20;75.40;;;;;;4982876;28;94116;-39
2023/07/11 02:56:21;;;;;;;86.68;54.30;;;20.20;75.60;;;;;;4964853;28;95794;-38
2023/07/11 02:58:50;;;;;;;86.95;54.05;;;20.20;75.60;;;;;;4971827;28;99320;-42
2023/07/11 03:01:15;;;;;;;88.70;54.03;;;20.20;75.70;;;;;;4970452;28;98450;-45
2023/07/11 03:03:41;;;;;;;86.97;54.22;;;20.20;75.50;;;;;;4975402;28;95470;-42
2023/07/11 03:06:06;;;;;;;86.55;54.40;;;20.20;75.80;;;;;;4972053;28;95856;-42
2023/07/11 03:08:32;;;;;;;87.03;54.05;;;20.20;76.50;;;;;;4971019;28;98276;-45
2023/07/11 03:10:59;;;;;;;87.03;53.78;;;20.10;75.50;;;;;;4960748;28;97754;-41
2023/07/11 03:13:25;;;;;;;89.38;54.38;;;20.10;75.60;;;;;;4983045;28;96471;-42
2023/07/11 03:15:52;;;;;;;88.65;54.60;;;20.10;75.40;;;;;;4968984;28;95636;-42
2023/07/11 03:18:17;;;;;;;87.05;54.25;;;20.10;75.90;;;;;;4979458;28;99277;-43
2023/07/11 03:20:43;;;;;;;86.85;54.20;;;20.10;75.50;;;;;;4980051;28;94846;-42
2023/07/11 03:23:14;;;;;;;88.70;54.05;;;20.10;75.80;;;;;;4976487;28;98681;-43
2023/07/11 03:25:41;;;;;;;86.22;53.55;;;20.00;75.70;;;;;;4982018;28;96330;-42
2023/07/11 03:28:07;;;;;;;87.20;54.13;;;20.00;76.00;;;;;;4972823;28;95017;-42
2023/07/11 03:30:36;;;;;;;88.47;54.08;;;20.00;75.90;;;;;;4982463;28;94830;-42
2023/07/11 03:33:02;;;;;;;87.60;54.10;;;20.00;75.90;;;;;;4977115;28;95534;-41
2023/07/11 03:35:28;;;;;;;87.47;54.35;;;20.00;76.30;;;;;;4985399;28;94978;-42
2023/07/11 03:37:54;;;;;;;86.82;54.03;;;20.00;75.50;;;;;;4977030;28;94819;-44
2023/07/11 03:40:20;;;;;;;86.78;54.00;;;20.00;76.10;;;;;;4982964;28;94667;-42
2023/07/11 03:42:45;;;;;;;86.72;53.97;;;20.00;75.70;;;;;;4977963;28;94238;-44
2023/07/11 03:45:11;;;;;;;86.35;54.03;;;20.00;76.40;;;;;;4978710;28;94664;-42
2023/07/11 03:47:37;;;;;;;87.20;54.10;;;19.90;76.10;;;;;;4978482;28;96724;-42
2023/07/11 03:50:02;;;;;;;86.28;53.90;;;20.00;76.60;;;;;;4964044;28;95745;-44
2023/07/11 03:52:28;;;;;;;87.10;53.88;;;19.90;76.10;;;;;;4956301;28;94593;-42
2023/07/11 03:54:54;;;;;;;88.05;54.05;;;19.90;75.90;;;;;;4980480;28;94892;-43
2023/07/11 03:57:19;;;;;;;86.75;54.15;;;19.90;76.70;;;;;;4979897;28;95206;-42
2023/07/11 03:59:45;;;;;;;87.22;53.95;;;19.90;76.00;;;;;;4979233;28;94595;-45
2023/07/11 04:02:10;;;;;;;87.50;54.65;;;19.90;76.50;;;;;;4979506;28;95245;-44
2023/07/11 04:04:36;;;;;;;86.85;54.05;;;19.90;76.50;;;;;;4979331;28;94831;-42
2023/07/11 04:07:03;;;;;;;87.60;54.05;;;19.90;77.00;;;;;;4976411;28;94029;-41
2023/07/11 04:56:41;;;;;;;90.82;59.95;;;20.10;76.40;;;;;;3773520;28;97658;-39
2023/07/11 04:59:07;;;;;;;90.88;54.53;;;20.20;77.00;;;;;;4971618;28;96492;-39
2023/07/11 05:01:33;;;;;;;86.90;54.25;;;20.20;77.30;;;;;;4975459;28;94727;-40
2023/07/11 05:03:58;;;;;;;87.60;54.08;;;20.20;79.40;;;;;;4971682;28;97402;-39
2023/07/11 05:06:24;;;;;;;87.63;54.35;;;20.30;78.00;;;;;;4978416;28;94714;-39
2023/07/11 05:08:50;;;;;;;87.63;54.15;;;20.30;78.80;;;;;;4970265;28;94133;-39
2023/07/11 05:11:18;;;;;;;87.43;54.47;;;20.30;77.70;;;;;;4968927;28;95190;-39
2023/07/11 05:13:46;;;;;;;88.38;54.55;;;20.40;76.70;;;;;;4975891;28;94481;-39
2023/07/11 05:16:15;;;;;;;86.28;54.25;;;20.40;77.40;;;;;;4975726;28;96094;-39
2023/07/11 05:18:40;;;;;;;88.13;54.85;;;20.40;75.60;;;;;;4981090;28;95206;-39
2023/07/11 05:21:08;;;;;;;88.03;54.33;;;20.50;75.00;;;;;;4980834;28;95108;-39
2023/07/11 05:23:34;;;;;;;87.18;53.95;;;20.50;76.60;;;;;;4979884;28;96234;-39
2023/07/11 05:26:01;;;;;;;88.00;54.40;;;20.50;76.60;;;;;;4974123;28;94884;-39
2023/07/11 05:28:26;;;;;;;86.78;54.50;;;20.50;76.30;;;;;;4978404;28;95267;-39
2023/07/11 05:30:53;;;;;;;88.32;54.28;;;20.60;74.90;;;;;;4976964;28;94744;-40
2023/07/11 05:33:18;;;;;;;88.32;54.63;;;20.60;76.20;;;;;;4976549;28;94337;-39
2023/07/11 05:35:57;;;;;;;88.40;54.47;;;20.60;75.40;;;;;;4979784;28;94953;-39
2023/07/11 05:38:24;;;;;;;88.38;54.67;;;20.70;75.90;;;;;;4976192;28;94841;-39
2023/07/11 05:40:49;;;;;;;87.50;54.53;;;20.70;75.00;;;;;;4982170;28;95938;-39
2023/07/11 05:43:15;;;;;;;88.13;54.40;;;20.70;74.30;;;;;;4983036;28;95049;-40
2023/07/11 05:45:43;;;;;;;86.63;54.20;;;20.80;75.10;;;;;;4972917;28;94696;-39
2023/07/11 05:48:09;;;;;;;88.43;54.45;;;20.80;75.30;;;;;;4977657;28;95232;-40
2023/07/11 05:50:35;;;;;;;87.70;54.55;;;20.90;74.70;;;;;;4970067;28;94720;-39
2023/07/11 05:53:01;;;;;;;88.82;54.33;;;20.90;73.60;;;;;;4979173;28;95041;-39
2023/07/11 05:55:27;;;;;;;89.22;54.35;;;20.90;75.70;;;;;;4974388;28;94813;-39
2023/07/11 05:57:52;;;;;;;87.93;54.42;;;21.00;76.70;;;;;;4969430;28;95341;-43
2023/07/11 06:00:19;;;;;;;87.75;54.65;;;21.10;74.30;;;;;;4969722;28;95875;-42
2023/07/11 06:02:44;;;;;;;88.00;54.33;;;21.10;74.80;;;;;;4975357;28;94717;-43
2023/07/11 06:05:10;;;;;;;88.85;54.47;;;21.10;74.80;;;;;;4972486;28;98051;-42
2023/07/11 06:07:35;;;;;;;87.90;54.65;;;21.20;75.80;;;;;;4973517;28;95372;-43
2023/07/11 06:10:01;;;;;;;87.70;54.35;;;21.20;73.00;;;;;;4975783;28;94910;-42
2023/07/11 06:12:27;;;;;;;87.40;54.25;;;21.20;74.40;;;;;;4976984;28;96445;-43
2023/07/11 06:14:52;;;;;;;88.65;54.20;;;21.30;75.80;;;;;;4974063;28;94804;-43
2023/07/11 06:17:18;;;;;;;88.10;54.58;;;21.40;73.00;;;;;;4973355;28;95014;-42
2023/07/11 06:19:44;;;;;;;88.85;54.42;;;21.40;73.30;;;;;;4971887;28;94840;-43
2023/07/11 06:22:10;;;;;;;88.18;54.78;;;21.50;74.90;;;;;;4971961;28;95415;-46
2023/07/11 06:24:37;;;;;;;88.03;54.58;;;21.50;74.60;;;;;;4978812;28;95340;-44
2023/07/11 06:27:03;;;;;;;89.78;54.72;;;21.50;72.70;;;;;;4963220;28;95480;-43
2023/07/11 06:29:30;;;;;;;88.53;54.53;;;21.60;72.90;;;;;;4974120;28;95956;-46
2023/07/11 06:31:55;;;;;;;89.38;54.72;;;21.60;72.10;;;;;;4954621;28;95901;-44
2023/07/11 06:34:21;;;;;;;88.25;54.72;;;21.70;72.00;;;;;;4971796;28;96336;-42
2023/07/11 06:36:47;;;;;;;88.63;54.65;;;21.70;71.40;;;;;;4973507;28;95145;-44
2023/07/11 06:39:13;;;;;;;88.28;54.47;;;21.70;71.30;;;;;;4975577;28;94774;-45
2023/07/11 06:41:38;;;;;;;89.38;54.80;;;21.70;71.00;;;;;;4977456;28;96188;-45
2023/07/11 06:44:08;;;;;;;89.35;54.78;;;21.80;70.80;;;;;;4979404;28;95107;-43
2023/07/11 06:46:34;;;;;;;94.50;55.45;;;21.80;68.40;;;;;;4973507;28;93956;-45
2023/07/11 06:49:00;;;;;;;92.55;55.45;;;21.90;69.60;;;;;;4978111;28;95138;-43
2023/07/11 06:51:26;;;;;;;93.63;55.83;;;22.10;68.30;;;;;;4972566;28;95232;-44
2023/07/11 06:53:52;;;;;;;94.38;55.35;;;22.20;68.60;;;;;;4970115;28;96098;-45
2023/07/11 06:56:18;;;;;;;91.93;55.05;;;22.20;68.20;;;;;;4971245;28;96619;-44
2023/07/11 06:58:44;;;;;;;91.13;55.28;;;22.30;68.70;;;;;;4973315;28;94537;-46
2023/07/11 07:01:11;;;;;;;93.53;55.35;;;22.30;68.00;;;;;;4975210;28;94931;-43
2023/07/11 07:03:36;;;;;;;93.22;55.35;;;22.40;67.60;;;;;;4975568;28;95125;-43
2023/07/11 07:06:05;;;;;;;97.03;55.70;;;22.50;67.90;;;;;;4975082;28;94597;-44
2023/07/11 07:08:31;;;;;;;90.30;55.20;;;22.60;67.80;;;;;;4973867;28;95322;-43
2023/07/11 07:10:57;;;;;;;93.00;55.55;;;22.60;68.50;;;;;;4979346;28;98437;-44
2023/07/11 07:13:23;;;;;;;92.57;55.60;;;22.60;67.50;;;;;;4971395;28;94639;-44
2023/07/11 07:15:51;;;;;;;90.90;55.58;;;22.70;67.30;;;;;;4970048;28;96223;-44
2023/07/11 07:18:17;;;;;;;93.88;55.88;;;22.70;66.50;;;;;;4971321;28;97148;-44
2023/07/11 07:20:47;;;;;;;94.90;56.22;;;22.80;66.60;;;;;;4975050;28;94920;-44
2023/07/11 07:23:13;;;;;;;92.93;55.47;;;22.80;65.90;;;;;;4972383;28;95881;-43
2023/07/11 07:25:39;;;;;;;92.65;55.25;;;22.80;64.70;;;;;;4975387;28;95204;-45
2023/07/11 07:28:04;;;;;;;95.53;55.72;;;22.90;64.60;;;;;;4974558;28;98002;-44
2023/07/11 07:30:30;;;;;;;93.38;55.50;;;22.90;64.90;;;;;;4973909;28;95416;-44
2023/07/11 07:32:57;;;;;;;96.22;56.00;;;23.00;65.50;;;;;;4971176;28;95941;-43
2023/07/11 07:35:23;;;;;;;94.72;55.70;;;23.00;65.20;;;;;;4975981;28;97083;-43
2023/07/11 07:37:48;;;;;;;89.78;55.55;;;23.00;65.30;;;;;;4969805;28;94723;-44
2023/07/11 07:40:15;;;;;;;90.60;55.42;;;23.10;65.40;;;;;;4972190;28;95501;-41
2023/07/11 07:42:41;;;;;;;96.05;55.75;;;23.10;65.20;;;;;;4966597;28;96455;-46
2023/07/11 07:45:07;;;;;;;91.88;55.58;;;23.20;65.60;;;;;;4972521;28;94728;-45
2023/07/11 07:47:35;;;;;;;91.35;55.65;;;23.20;65.30;;;;;;4971977;28;96354;-45
2023/07/11 07:50:01;;;;;;;95.03;56.10;;;23.20;65.60;;;;;;4965169;28;98672;-45
2023/07/11 07:52:26;;;;;;;94.07;56.25;;;23.30;65.80;;;;;;4970477;28;96468;-45
2023/07/11 07:54:52;;;;;;;92.15;56.08;;;23.30;65.00;;;;;;4967577;28;97204;-47
2023/07/11 07:57:18;;;;;;;92.57;56.03;;;23.40;64.90;;;;;;4968307;28;94726;-47
2023/07/11 07:59:43;;;;;;;93.85;56.13;;;23.40;65.10;;;;;;4971780;28;95054;-46
2023/07/11 08:02:09;;;;;;;96.30;56.33;;;23.50;64.10;;;;;;4954675;28;96259;-42
2023/07/11 08:04:35;;;;;;;92.05;55.67;;;23.50;65.70;;;;;;4968413;28;95573;-42
2023/07/11 08:07:01;;;;;;;95.25;55.83;;;23.40;66.50;;;;;;4961145;28;102130;-42
2023/07/11 08:09:27;;;;;;;91.55;55.90;;;23.40;66.50;;;;;;4951238;28;94885;-40
2023/07/11 08:11:52;;;;;;;89.30;55.47;;;23.40;66.30;;;;;;4972055;28;96416;-41
2023/07/11 08:14:18;;;;;;;91.47;56.38;;;23.40;66.40;;;;;;4973688;28;94612;-41
2023/07/11 08:16:44;;;;;;;93.60;56.25;;;23.40;66.10;;;;;;4975341;28;98953;-41
2023/07/11 08:19:09;;;;;;;94.80;55.72;;;23.40;66.50;;;;;;4972633;28;95340;-47
2023/07/11 08:21:36;;;;;;;91.10;55.60;;;23.40;66.80;;;;;;4975267;28;95112;-45
2023/07/11 08:24:02;;;;;;;92.22;55.85;;;23.40;66.60;;;;;;4972371;28;95169;-45
2023/07/11 08:26:28;;;;;;;93.25;56.03;;;23.50;67.00;;;;;;4985462;28;94715;-48
2023/07/11 08:28:54;;;;;;;92.28;55.95;;;23.50;66.70;;;;;;4986888;28;95305;-46
2023/07/11 08:31:20;;;;;;;92.05;56.15;;;23.50;67.40;;;;;;4978310;28;96209;-45
2023/07/11 08:33:46;;;;;;;92.63;56.03;;;23.50;66.20;;;;;;4974888;28;95504;-48
2023/07/11 08:36:12;;;;;;;92.82;56.15;;;23.50;66.70;;;;;;4981107;28;96537;-46
2023/07/11 08:38:38;;;;;;;92.03;56.42;;;23.60;66.50;;;;;;4982589;28;95184;-45
2023/07/11 08:41:20;;;;;;;91.63;56.05;;;23.60;66.10;;;;;;4979354;28;95823;-46
2023/07/11 08:43:48;;;;;;;91.75;55.95;;;23.60;66.60;;;;;;4976243;28;96481;-44
2023/07/11 08:46:15;;;;;;;94.63;56.15;;;23.70;66.80;;;;;;4961938;28;97533;-45
2023/07/11 08:48:50;;;;;;;91.78;56.00;;;23.70;66.50;;;;;;4959589;28;94855;-45
2023/07/11 08:51:38;;;;;;;92.07;55.95;;;23.70;66.80;;;;;;4953954;28;96118;-46
2023/07/11 08:54:15;;;;;;;91.03;56.00;;;23.70;66.80;;;;;;4963989;28;96037;-47
2023/07/11 08:56:43;;;;;;;92.88;56.17;;;23.80;66.80;;;;;;4952931;28;96470;-47
2023/07/11 08:59:20;;;;;;;93.35;55.90;;;23.80;66.20;;;;;;4979104;28;95306;-45
2023/07/11 09:02:10;;;;;;;93.20;56.05;;;23.90;66.90;;;;;;4981364;28;95330;-45
2023/07/11 12:16:49;;;;;;;101.47;62.60;;;26.40;61.10;;;;;;3732001;28;99423;-43
2023/07/11 12:19:42;;;;;;;96.07;57.83;;;26.50;59.40;;;;;;4956881;28;95096;-46
2023/07/11 12:22:07;;;;;;;96.03;57.90;;;26.60;59.10;;;;;;4949594;28;95268;-48
2023/07/11 12:24:33;;;;;;;96.25;57.95;;;26.60;60.90;;;;;;4959690;28;96721;-48
2023/07/11 12:27:16;;;;;;;97.78;58.00;;;26.70;58.80;;;;;;4959814;28;96479;-49
2023/07/11 12:29:52;;;;;;;95.05;57.50;;;26.70;59.90;;;;;;4950871;28;94751;-48
2023/07/11 12:32:33;;;;;;;94.45;57.45;;;26.80;61.90;;;;;;4951157;28;96840;-47
2023/07/11 12:35:05;;;;;;;96.80;57.97;;;26.80;60.30;;;;;;4952583;28;94869;-49
2023/07/11 12:37:36;;;;;;;97.60;57.58;;;26.80;59.10;;;;;;4955365;28;95232;-48
2023/07/11 12:40:21;;;;;;;96.00;57.53;;;26.80;58.90;;;;;;4953296;28;96585;-46
2023/07/11 12:42:50;;;;;;;96.95;58.00;;;26.90;59.30;;;;;;4958616;28;98261;-50
2023/07/11 12:45:20;;;;;;;96.95;57.90;;;26.90;58.60;;;;;;4954556;28;95945;-50
2023/07/11 12:47:49;;;;;;;96.53;57.60;;;26.90;58.60;;;;;;4955976;28;95049;-45
2023/07/11 12:50:32;;;;;;;94.97;57.80;;;26.90;62.30;;;;;;4951050;28;95090;-48
2023/07/11 12:53:03;;;;;;;96.50;57.85;;;26.90;58.40;;;;;;4956812;28;96062;-50
2023/07/11 12:55:29;;;;;;;;;;;27.00;61.60;;;;;;4961360;28;95236;-48
2023/07/11 12:57:55;;;;;;;96.97;57.42;;;27.00;60.00;;;;;;4955223;28;97896;-47
2023/07/11 13:00:23;;;;;;;96.60;57.88;;;27.00;59.10;;;;;;4954054;28;94121;-46
2023/07/11 13:02:54;;;;;;;97.00;57.83;;;27.10;60.70;;;;;;4958645;28;99163;-51
2023/07/11 13:05:22;;;;;;;96.35;57.92;;;27.10;61.10;;;;;;4957082;28;94945;-53
2023/07/11 13:07:48;;;;;;;96.72;57.30;;;27.10;58.80;;;;;;4955057;28;98924;-51
2023/07/11 13:10:18;;;;;;;93.82;57.80;;;27.10;59.50;;;;;;4957992;28;95211;-48
2023/07/11 13:12:44;;;;;;;97.05;58.05;;;27.20;59.10;;;;;;4955791;28;94733;-50
2023/07/11 13:15:21;;;;;;;98.13;58.28;;;27.20;58.40;;;;;;4957599;28;95959;-47
2023/07/11 13:17:50;;;;;;;97.57;58.30;;;27.20;59.20;;;;;;4971451;28;95064;-49
2023/07/11 13:20:30;;;;;;;95.72;57.88;;;27.20;59.10;;;;;;4975629;28;95014;-49
2023/07/11 13:22:56;;;;;;;97.10;58.00;;;27.20;58.70;;;;;;4980613;28;95348;-49
2023/07/11 13:25:31;;;;;;;96.20;57.78;;;27.20;58.60;;;;;;4975493;28;95454;-49
2023/07/11 13:27:57;;;;;;;98.28;57.65;;;27.20;58.80;;;;;;4980144;28;94858;-48
2023/07/11 13:30:26;;;;;;;95.13;57.53;;;27.20;60.80;;;;;;4976185;28;95929;-48
2023/07/11 13:32:56;;;;;;;95.70;58.05;;;27.30;59.20;;;;;;4969709;28;97290;-48
2023/07/11 13:35:24;;;;;;;95.82;57.80;;;27.30;60.00;;;;;;4966811;28;97784;-49
2023/07/11 13:37:50;;;;;;;95.43;57.53;;;27.30;61.10;;;;;;4969115;28;95163;-48
2023/07/11 13:40:38;;;;;;;96.80;58.00;;;27.30;60.10;;;;;;4952984;28;95714;-50
2023/07/11 13:43:16;;;;;;;95.05;57.70;;;27.40;60.00;;;;;;4977346;28;95071;-46
2023/07/11 13:45:42;;;;;;;96.80;58.25;;;27.40;58.40;;;;;;4963802;28;97488;-47
2023/07/11 13:48:17;;;;;;;98.82;57.97;;;27.50;59.60;;;;;;4970640;28;95990;-47
2023/07/11 13:50:42;;;;;;;98.00;58.03;;;27.50;59.40;;;;;;4973784;28;93989;-43
2023/07/11 13:53:14;;;;;;;98.20;58.10;;;27.50;61.00;;;;;;4975522;28;95642;-48
2023/07/11 13:55:50;;;;;;;98.20;58.05;;;27.50;59.40;;;;;;4968664;28;96253;-45
2023/07/11 13:58:18;;;;;;;95.03;57.78;;;27.50;60.40;;;;;;4972394;28;97401;-47
2023/07/11 14:00:47;;;;;;;102.50;58.35;;;27.50;59.90;;;;;;4963168;28;95522;-46
2023/07/11 14:03:21;;;;;;;97.65;58.28;;;27.50;60.80;;;;;;4971377;28;95771;-47
2023/07/11 14:05:49;;;;;;;103.25;57.90;;;27.50;57.70;;;;;;4974644;28;94869;-46
2023/07/11 14:08:17;;;;;;;98.05;57.65;;;27.50;58.50;;;;;;4971866;28;95179;-41
2023/07/11 14:10:44;;;;;;;99.68;58.03;;;27.50;59.10;;;;;;4977236;28;94874;-42
2023/07/11 14:13:21;;;;;;;96.55;57.95;;;27.50;56.80;;;;;;4969842;28;95579;-41
2023/07/11 14:15:47;;;;;;;97.15;57.63;;;27.40;56.20;;;;;;4969742;28;94326;-41
2023/07/11 14:18:13;;;;;;;96.60;57.80;;;27.40;58.70;;;;;;4975260;28;95135;-41
2023/07/11 14:20:39;;;;;;;95.13;57.38;;;27.40;56.60;;;;;;4974199;28;94764;-42
2023/07/11 14:23:26;;;;;;;96.30;58.00;;;27.50;56.70;;;;;;4972968;28;97847;-44
2023/07/11 14:25:53;;;;;;;96.03;57.60;;;27.40;55.20;;;;;;4971833;28;95622;-42
2023/07/11 14:28:18;;;;;;;97.70;57.88;;;27.50;57.50;;;;;;4968062;28;99410;-43
2023/07/11 14:30:44;;;;;;;96.38;58.00;;;27.50;60.90;;;;;;4968805;28;95327;-42
2023/07/11 14:33:15;;;;;;;94.00;57.55;;;27.50;55.90;;;;;;4970216;28;97979;-41
2023/07/11 14:35:41;;;;;;;94.00;57.30;;;27.50;55.20;;;;;;4975453;28;95171;-41
2023/07/11 14:38:12;;;;;;;99.20;57.80;;;27.50;56.20;;;;;;4973969;28;95474;-41
2023/07/11 14:40:37;;;;;;;102.25;57.90;;;27.50;56.20;;;;;;4970253;28;94154;-43
2023/07/11 14:43:17;;;;;;;96.47;57.67;;;27.50;57.20;;;;;;4971327;28;95431;-44
2023/07/11 14:45:43;;;;;;;96.82;57.70;;;27.50;55.50;;;;;;4969626;28;95039;-42
2023/07/11 14:48:14;;;;;;;99.97;57.72;;;27.50;56.40;;;;;;4953148;28;95719;-41
2023/07/11 14:50:41;;;;;;;96.78;57.65;;;27.50;54.70;;;;;;4970073;28;95049;-42
2023/07/11 14:53:16;;;;;;;96.65;58.25;;;27.60;57.80;;;;;;4975983;28;95122;-42
2023/07/11 14:55:41;;;;;;;98.78;58.05;;;27.60;54.70;;;;;;4973102;28;94705;-40
2023/07/11 14:58:09;;;;;;;93.93;57.28;;;27.60;56.00;;;;;;4971810;28;94791;-42
2023/07/11 15:00:35;;;;;;;96.70;57.55;;;27.70;58.40;;;;;;4951460;28;94819;-42
2023/07/11 15:03:01;;;;;;;100.93;57.75;;;27.70;61.20;;;;;;4970548;28;98059;-42
2023/07/11 15:05:28;;;;;;;95.78;57.28;;;27.70;55.40;;;;;;4976088;28;94342;-45
2023/07/11 15:07:56;;;;;;;96.35;57.42;;;27.70;56.40;;;;;;4966333;28;95310;-50
2023/07/11 15:10:24;;;;;;;101.57;57.97;;;27.70;56.70;;;;;;4967516;28;97170;-44
2023/07/11 15:12:50;;;;;;;98.78;57.85;;;27.70;55.90;;;;;;4959218;28;95998;-44
2023/07/11 15:15:21;;;;;;;100.25;57.85;;;27.70;54.80;;;;;;4970364;28;95609;-43
2023/07/11 15:17:47;;;;;;;97.85;57.60;;;27.80;60.50;;;;;;4972962;28;95222;-42
2023/07/11 15:20:15;;;;;;;101.60;57.47;;;27.80;55.80;;;;;;4963979;28;95395;-42
2023/07/11 15:22:43;;;;;;;101.93;58.13;;;27.80;56.20;;;;;;4962537;28;100394;-43
2023/07/11 15:25:39;;;;;;;95.25;57.35;;;27.80;54.60;;;;;;4949487;28;95075;-41
2023/07/11 15:28:25;;;;;;;97.13;57.83;;;27.90;60.30;;;;;;4960372;28;95122;-43
2023/07/11 15:30:54;;;;;;;98.32;57.67;;;27.80;54.70;;;;;;4968475;28;94227;-42
2023/07/11 15:33:30;;;;;;;101.13;58.40;;;27.80;57.30;;;;;;4962152;28;95175;-42
2023/07/11 15:35:58;;;;;;;100.03;58.17;;;27.80;55.00;;;;;;4975318;28;95204;-40
2023/07/11 15:38:24;;;;;;;98.53;58.50;;;27.80;54.70;;;;;;4974001;28;97299;-41
2023/07/11 15:40:51;;;;;;;97.07;57.97;;;27.70;54.40;;;;;;4974248;28;95717;-41
2023/07/11 15:43:24;;;;;;;94.97;58.13;;;27.80;54.70;;;;;;4972303;28;96882;-41
2023/07/11 15:45:50;;;;;;;98.70;58.20;;;27.80;59.30;;;;;;4972718;28;96799;-41
2023/07/11 15:48:17;;;;;;;96.10;57.65;;;27.80;54.70;;;;;;4977414;28;94870;-45
2023/07/11 15:50:43;;;;;;;94.60;58.03;;;27.80;53.50;;;;;;4965226;28;95182;-45
2023/07/11 15:53:10;;;;;;;98.63;58.17;;;27.70;53.20;;;;;;4951191;28;98492;-45
2023/07/11 15:55:37;;;;;;;97.70;58.03;;;27.80;54.50;;;;;;4953001;28;95151;-46
2023/07/11 15:58:04;;;;;;;99.28;57.60;;;27.80;55.30;;;;;;4965981;28;95312;-45
2023/07/11 16:00:33;;;;;;;94.35;57.42;;;27.80;54.50;;;;;;4965766;28;95166;-47
2023/07/11 16:02:58;;;;;;;93.82;57.35;;;27.80;56.60;;;;;;4968179;28;97872;-43
2023/07/11 16:05:31;;;;;;;97.63;57.80;;;27.80;55.20;;;;;;4960188;28;95974;-44
2023/07/11 16:07:56;;;;;;;97.93;57.58;;;27.90;57.70;;;;;;4967655;28;98811;-48
2023/07/11 16:10:29;;;;;;;95.35;57.38;;;27.90;56.80;;;;;;4967130;28;96208;-44
2023/07/11 16:12:55;;;;;;;96.30;57.40;;;27.90;57.30;;;;;;4963790;28;95289;-45
2023/07/11 16:15:25;;;;;;;93.63;57.17;;;27.90;58.70;;;;;;4968340;28;95458;-46
2023/07/11 16:17:51;;;;;;;99.38;57.17;;;28.00;56.40;;;;;;4962703;28;100240;-44
2023/07/11 16:20:23;;;;;;;94.53;57.42;;;28.00;59.80;;;;;;4971898;28;94608;-47
2023/07/11 16:22:50;;;;;;;95.25;57.60;;;28.00;55.60;;;;;;4971413;28;97151;-46
2023/07/11 16:25:16;;;;;;;95.72;57.75;;;28.10;58.40;;;;;;4967381;28;97072;-43
2023/07/11 16:27:46;;;;;;;103.15;58.00;;;28.10;54.70;;;;;;4970863;28;98520;-45